| time (UTC) | temp F | wind direction | speed MPH | gust MPH | rain 1hr in | rain 24hr in | rain mn in | humidity % | barometer mb |
| 20260904092048 | 54 | 320 | 3.0 | 8.0 | 0.00 | 0.05 | 0.00 | 95 | 1012.8 |
| 20260904091609 | 54 | 305 | 3.0 | 8.0 | 0.00 | 0.05 | 0.00 | 95 | 1012.8 |
| 20260904091045 | 54 | 321 | 4.0 | 8.0 | 0.00 | 0.05 | 0.00 | 95 | 1012.9 |
| 20260904090545 | 54 | 325 | 2.0 | 7.0 | 0.00 | 0.05 | 0.00 | 95 | 1012.8 |
| 20260904090057 | 54 | 296 | 4.0 | 8.0 | 0.00 | 0.05 | 0.00 | 95 | 1012.9 |
| 20260904085543 | 54 | 290 | 4.0 | 8.0 | 0.00 | 0.05 | 0.00 | 95 | 1012.9 |
| 20260904085046 | 54 | 321 | 4.0 | 8.0 | 0.00 | 0.05 | 0.00 | 95 | 1012.9 |
| 20260904084555 | 54 | 310 | 4.0 | 7.0 | 0.00 | 0.05 | 0.00 | 94 | 1012.9 |
| 20260904084042 | 54 | 312 | 4.0 | 7.0 | 0.00 | 0.05 | 0.00 | 95 | 1012.9 |
| 20260904083544 | 54 | 313 | 3.0 | 5.0 | 0.00 | 0.05 | 0.00 | 95 | 1012.9 |
| 20260904083111 | 54 | 314 | 2.0 | 5.0 | 0.00 | 0.05 | 0.00 | 95 | 1012.9 |
| 20260904082546 | 54 | 314 | 2.0 | 5.0 | 0.00 | 0.05 | 0.00 | 95 | 1012.9 |
| 20260904082048 | 54 | 314 | 3.0 | 5.0 | 0.00 | 0.05 | 0.00 | 95 | 1012.9 |
| 20260904081559 | 54 | 314 | 3.0 | 5.0 | 0.00 | 0.05 | 0.00 | 95 | 1012.8 |
| 20260904081043 | 54 | 315 | 0.0 | 2.0 | 0.00 | 0.05 | 0.00 | 95 | 1012.9 |
| 20260904080546 | 54 | 0 | 0.0 | 2.0 | 0.00 | 0.05 | 0.00 | 95 | 1012.9 |
| 20260904080053 | 54 | 0 | 0.0 | 3.0 | 0.00 | 0.05 | 0.00 | 95 | 1013.0 |
| 20260904075544 | 54 | 314 | 1.0 | 5.0 | 0.00 | 0.05 | 0.00 | 95 | 1013.1 |
| 20260904075048 | 54 | 315 | 1.0 | 8.0 | 0.00 | 0.05 | 0.00 | 95 | 1013.1 |
| 20260904074611 | 54 | 330 | 3.0 | 9.0 | 0.00 | 0.05 | 0.00 | 95 | 1013.0 |
| 20260904074044 | 54 | 310 | 4.0 | 10.0 | 0.00 | 0.05 | 0.00 | 94 | 1013.1 |
| 20260904073544 | 54 | 336 | 4.0 | 10.0 | 0.01 | 0.05 | 0.00 | 95 | 1013.1 |
| 20260904073102 | 54 | 315 | 5.0 | 10.0 | 0.01 | 0.05 | 0.00 | 94 | 1013.0 |
| 20260904072547 | 54 | 319 | 5.0 | 10.0 | 0.02 | 0.05 | 0.00 | 94 | 1013.1 |
| 20260904072043 | 54 | 283 | 5.0 | 12.0 | 0.03 | 0.05 | 0.00 | 94 | 1013.0 |
| 20260904071559 | 54 | 321 | 7.0 | 12.0 | 0.03 | 0.05 | 0.00 | 94 | 1013.0 |
| 20260904071043 | 54 | 307 | 6.0 | 11.0 | 0.03 | 0.05 | 0.00 | 94 | 1012.9 |
| 20260904070546 | 55 | 305 | 7.0 | 12.0 | 0.04 | 0.05 | 0.00 | 94 | 1013.0 |
| 20260904070126 | 55 | 311 | 7.0 | 12.0 | 0.04 | 0.05 | 0.00 | 94 | 1012.9 |
| 20260904065543 | 55 | 300 | 8.0 | 14.0 | 0.04 | 0.05 | 0.05 | 93 | 1012.9 |
| 20260904065046 | 56 | 310 | 8.0 | 14.0 | 0.04 | 0.05 | 0.05 | 93 | 1012.9 |
| 20260904064553 | 56 | 306 | 7.0 | 12.0 | 0.04 | 0.05 | 0.05 | 94 | 1012.8 |
| 20260904064043 | 57 | 296 | 6.0 | 12.0 | 0.04 | 0.05 | 0.05 | 93 | 1012.8 |
| 20260904063544 | 58 | 315 | 4.0 | 7.0 | 0.03 | 0.04 | 0.04 | 94 | 1012.9 |
| 20260904063105 | 58 | 311 | 2.0 | 5.0 | 0.03 | 0.04 | 0.04 | 94 | 1012.9 |
| 20260904062543 | 58 | 0 | 0.0 | 0.0 | 0.02 | 0.03 | 0.03 | 94 | 1013.0 |
| 20260904062043 | 58 | 0 | 0.0 | 5.0 | 0.01 | 0.02 | 0.02 | 94 | 1013.0 |
| 20260904061558 | 58 | 0 | 0.0 | 5.0 | 0.01 | 0.02 | 0.02 | 94 | 1012.9 |
| 20260904061044 | 58 | 158 | 1.0 | 6.0 | 0.01 | 0.02 | 0.02 | 94 | 1012.9 |
| 20260904060544 | 58 | 153 | 3.0 | 6.0 | 0.01 | 0.01 | 0.01 | 94 | 1012.9 |
| 20260904060100 | 58 | 149 | 3.0 | 6.0 | 0.01 | 0.01 | 0.01 | 94 | 1012.9 |
| 20260904055544 | 58 | 149 | 3.0 | 6.0 | 0.01 | 0.01 | 0.01 | 93 | 1012.9 |
| 20260904055045 | 58 | 149 | 3.0 | 6.0 | 0.01 | 0.01 | 0.01 | 93 | 1012.9 |
| 20260904054554 | 58 | 149 | 2.0 | 5.0 | 0.01 | 0.01 | 0.01 | 93 | 1012.9 |
| 20260904054044 | 58 | 149 | 2.0 | 5.0 | 0.01 | 0.01 | 0.01 | 93 | 1013.1 |
| 20260904053544 | 58 | 153 | 2.0 | 4.0 | 0.01 | 0.01 | 0.01 | 93 | 1013.1 |
| 20260904053101 | 58 | 153 | 1.0 | 3.0 | 0.01 | 0.01 | 0.01 | 93 | 1013.2 |
| 20260904052544 | 58 | 154 | 1.0 | 4.0 | 0.01 | 0.01 | 0.01 | 93 | 1013.3 |
| 20260904052044 | 58 | 154 | 1.0 | 4.0 | 0.01 | 0.01 | 0.01 | 93 | 1013.3 |
| 20260904051607 | 58 | 169 | 2.0 | 4.0 | 0.01 | 0.01 | 0.01 | 93 | 1013.2 |
| 20260904051043 | 59 | 130 | 1.0 | 4.0 | 0.01 | 0.01 | 0.01 | 92 | 1013.3 |
| 20260904050544 | 59 | 0 | 0.0 | 5.0 | 0.00 | 0.00 | 0.00 | 92 | 1013.4 |
| 20260904050057 | 59 | 0 | 0.0 | 5.0 | 0.00 | 0.00 | 0.00 | 92 | 1013.5 |
| 20260904045545 | 59 | 143 | 1.0 | 4.0 | 0.00 | 0.00 | 0.00 | 92 | 1013.5 |
| 20260904045045 | 59 | 137 | 1.0 | 5.0 | 0.00 | 0.00 | 0.00 | 92 | 1013.6 |
| 20260904044604 | 59 | 138 | 2.0 | 5.0 | 0.00 | 0.00 | 0.00 | 91 | 1013.6 |
| 20260904044043 | 59 | 121 | 2.0 | 5.0 | 0.00 | 0.00 | 0.00 | 91 | 1013.5 |
| 20260904043551 | 59 | 122 | 1.0 | 3.0 | 0.00 | 0.00 | 0.00 | 91 | 1013.5 |
| 20260904043102 | 59 | 129 | 0.0 | 2.0 | 0.00 | 0.00 | 0.00 | 91 | 1013.6 |
| 20260904042548 | 59 | 153 | 0.0 | 2.0 | 0.00 | 0.00 | 0.00 | 91 | 1013.6 |
| 20260904042044 | 59 | 0 | 0.0 | 2.0 | 0.00 | 0.00 | 0.00 | 91 | 1013.6 |
| 20260904041607 | 59 | 0 | 0.0 | 2.0 | 0.00 | 0.00 | 0.00 | 91 | 1013.5 |
| 20260904041044 | 59 | 0 | 0.0 | 2.0 | 0.00 | 0.00 | 0.00 | 90 | 1013.5 |
| 20260904040543 | 59 | 0 | 0.0 | 2.0 | 0.00 | 0.00 | 0.00 | 90 | 1013.4 |
| 20260904040110 | 59 | 0 | 0.0 | 3.0 | 0.00 | 0.00 | 0.00 | 90 | 1013.4 |
| 20260904035543 | 59 | 0 | 0.0 | 3.0 | 0.00 | 0.00 | 0.00 | 90 | 1013.3 |
| 20260904035044 | 59 | 136 | 0.0 | 3.0 | 0.00 | 0.00 | 0.00 | 90 | 1013.3 |
| 20260904034613 | 60 | 0 | 0.0 | 1.0 | 0.00 | 0.00 | 0.00 | 90 | 1013.4 |
| 20260904034045 | 60 | 0 | 0.0 | 1.0 | 0.00 | 0.00 | 0.00 | 89 | 1013.3 |
| 20260904033544 | 60 | 0 | 0.0 | 1.0 | 0.00 | 0.00 | 0.00 | 89 | 1013.3 |
| 20260904033104 | 60 | 0 | 0.0 | 1.0 | 0.00 | 0.00 | 0.00 | 89 | 1013.4 |
| 20260904032543 | 60 | 0 | 0.0 | 1.0 | 0.00 | 0.00 | 0.00 | 89 | 1013.3 |
| 20260904032043 | 60 | 0 | 0.0 | 1.0 | 0.00 | 0.00 | 0.00 | 89 | 1013.3 |
| 20260904031558 | 60 | 0 | 0.0 | 1.0 | 0.00 | 0.00 | 0.00 | 89 | 1013.2 |
| 20260904031044 | 60 | 0 | 0.0 | 1.0 | 0.00 | 0.00 | 0.00 | 89 | 1013.2 |
| 20260904030544 | 60 | 0 | 0.0 | 2.0 | 0.00 | 0.00 | 0.00 | 89 | 1013.3 |
| 20260904030056 | 60 | 0 | 0.0 | 3.0 | 0.00 | 0.00 | 0.00 | 89 | 1013.2 |
| 20260904025545 | 60 | 0 | 0.0 | 3.0 | 0.00 | 0.00 | 0.00 | 88 | 1013.2 |
| 20260904025049 | 60 | 252 | 0.0 | 2.0 | 0.00 | 0.00 | 0.00 | 88 | 1013.2 |
| 20260904024549 | 60 | 0 | 0.0 | 1.0 | 0.00 | 0.00 | 0.00 | 87 | 1013.3 |
| 20260904024048 | 60 | 0 | 0.0 | 1.0 | 0.00 | 0.00 | 0.00 | 87 | 1013.4 |
| 20260904023544 | 60 | 0 | 0.0 | 2.0 | 0.00 | 0.00 | 0.00 | 87 | 1013.4 |
| 20260904023100 | 61 | 0 | 0.0 | 2.0 | 0.00 | 0.00 | 0.00 | 86 | 1013.3 |
| 20260904022600 | 61 | 0 | 0.0 | 2.0 | 0.00 | 0.00 | 0.00 | 86 | 1013.4 |
| 20260904022045 | 61 | 0 | 0.0 | 2.0 | 0.00 | 0.00 | 0.00 | 86 | 1013.5 |
| 20260904021606 | 61 | 0 | 0.0 | 3.0 | 0.00 | 0.00 | 0.00 | 85 | 1013.5 |
| 20260904021044 | 61 | 0 | 0.0 | 3.0 | 0.00 | 0.00 | 0.00 | 85 | 1013.4 |
| 20260904020545 | 61 | 238 | 0.0 | 3.0 | 0.00 | 0.00 | 0.00 | 85 | 1013.4 |
| 20260904020057 | 61 | 207 | 0.0 | 3.0 | 0.00 | 0.00 | 0.00 | 84 | 1013.5 |
| 20260904015545 | 61 | 0 | 1.0 | 3.0 | 0.00 | 0.00 | 0.00 | 83 | 1013.5 |
| 20260904015045 | 62 | 0 | 0.0 | 3.0 | 0.00 | 0.00 | 0.00 | 83 | 1013.5 |
| 20260904014640 | 62 | 0 | 0.0 | 2.0 | 0.00 | 0.00 | 0.00 | 82 | 1013.5 |
| 20260904014045 | 62 | 0 | 0.0 | 3.0 | 0.00 | 0.00 | 0.00 | 81 | 1013.7 |
| 20260904013545 | 62 | 0 | 0.0 | 4.0 | 0.00 | 0.00 | 0.00 | 81 | 1013.7 |
| 20260904013059 | 62 | 0 | 2.0 | 4.0 | 0.00 | 0.00 | 0.00 | 80 | 1013.7 |
| 20260904012545 | 63 | 229 | 1.0 | 3.0 | 0.00 | 0.00 | 0.00 | 80 | 1013.7 |
| 20260904012045 | 63 | 0 | 1.0 | 4.0 | 0.00 | 0.00 | 0.00 | 79 | 1013.8 |
| 20260904011619 | 63 | 0 | 1.0 | 4.0 | 0.00 | 0.00 | 0.00 | 79 | 1013.7 |
| 20260904011046 | 63 | 250 | 1.0 | 3.0 | 0.00 | 0.00 | 0.00 | 79 | 1013.7 |
| 20260904010544 | 63 | 250 | 0.0 | 2.0 | 0.00 | 0.00 | 0.00 | 78 | 1013.7 |
| 20260904010103 | 64 | 0 | 0.0 | 3.0 | 0.00 | 0.00 | 0.00 | 77 | 1013.8 |
| 20260904005548 | 64 | 321 | 1.0 | 4.0 | 0.00 | 0.00 | 0.00 | 76 | 1013.8 |
| 20260904005044 | 64 | 321 | 1.0 | 4.0 | 0.00 | 0.00 | 0.00 | 76 | 1013.8 |
| 20260904004605 | 65 | 311 | 0.0 | 3.0 | 0.00 | 0.00 | 0.00 | 75 | 1013.8 |
| 20260904004045 | 65 | 311 | 0.0 | 5.0 | 0.00 | 0.00 | 0.00 | 74 | 1013.7 |
| 20260904003543 | 65 | 247 | 1.0 | 5.0 | 0.00 | 0.00 | 0.00 | 74 | 1013.8 |
| 20260904003104 | 65 | 0 | 1.0 | 3.0 | 0.00 | 0.00 | 0.00 | 74 | 1013.7 |
| 20260904002545 | 65 | 275 | 0.0 | 4.0 | 0.00 | 0.00 | 0.00 | 73 | 1013.8 |
| 20260904002047 | 66 | 0 | 2.0 | 4.0 | 0.00 | 0.00 | 0.00 | 72 | 1013.8 |
| 20260904001559 | 66 | 290 | 1.0 | 4.0 | 0.00 | 0.00 | 0.00 | 72 | 1013.8 |
| 20260904001044 | 66 | 282 | 2.0 | 4.0 | 0.00 | 0.00 | 0.00 | 71 | 1013.7 |
| 20260904000546 | 67 | 234 | 1.0 | 4.0 | 0.00 | 0.00 | 0.00 | 70 | 1013.7 |
| 20260904000058 | 67 | 242 | 1.0 | 3.0 | 0.00 | 0.00 | 0.00 | 71 | 1013.9 |
| 20260903235544 | 67 | 282 | 1.0 | 4.0 | 0.00 | 0.00 | 0.00 | 70 | 1013.9 |
| 20260903235045 | 67 | 282 | 1.0 | 4.0 | 0.00 | 0.00 | 0.00 | 69 | 1013.9 |
| 20260903234604 | 68 | 342 | 1.0 | 3.0 | 0.00 | 0.00 | 0.00 | 69 | 1013.9 |
| 20260903234045 | 68 | 0 | 1.0 | 6.0 | 0.00 | 0.00 | 0.00 | 68 | 1013.9 |
| 20260903233545 | 69 | 349 | 1.0 | 6.0 | 0.00 | 0.00 | 0.00 | 68 | 1014.0 |
| 20260903233113 | 69 | 232 | 2.0 | 4.0 | 0.00 | 0.00 | 0.00 | 67 | 1013.9 |
| 20260903232544 | 69 | 297 | 2.0 | 7.0 | 0.00 | 0.00 | 0.00 | 67 | 1014.0 |
| 20260903232045 | 70 | 254 | 2.0 | 7.0 | 0.00 | 0.00 | 0.00 | 65 | 1014.0 |
| 20260903231557 | 70 | 220 | 1.0 | 4.0 | 0.00 | 0.00 | 0.00 | 64 | 1014.1 |
| 20260903231044 | 70 | 253 | 1.0 | 3.0 | 0.00 | 0.00 | 0.00 | 64 | 1014.2 |
| 20260903230544 | 70 | 180 | 1.0 | 4.0 | 0.00 | 0.00 | 0.00 | 64 | 1014.1 |
| 20260903230057 | 71 | 98 | 1.0 | 4.0 | 0.00 | 0.00 | 0.00 | 63 | 1014.2 |
| 20260903225544 | 71 | 290 | 2.0 | 7.0 | 0.00 | 0.00 | 0.00 | 64 | 1014.1 |
| 20260903225044 | 71 | 223 | 1.0 | 7.0 | 0.00 | 0.00 | 0.00 | 64 | 1014.2 |
| 20260903224602 | 71 | 255 | 1.0 | 4.0 | 0.00 | 0.00 | 0.00 | 65 | 1014.3 |
| 20260903224047 | 71 | 300 | 1.0 | 4.0 | 0.00 | 0.00 | 0.00 | 65 | 1014.4 |
| 20260903223544 | 71 | 312 | 2.0 | 7.0 | 0.00 | 0.00 | 0.00 | 64 | 1014.3 |
| 20260903223114 | 72 | 232 | 1.0 | 9.0 | 0.00 | 0.00 | 0.00 | 62 | 1014.4 |
| 20260903222543 | 72 | 281 | 0.0 | 9.0 | 0.00 | 0.00 | 0.00 | 63 | 1014.4 |
| 20260903222045 | 72 | 311 | 2.0 | 4.0 | 0.00 | 0.00 | 0.00 | 62 | 1014.4 |
| 20260903221556 | 72 | 185 | 1.0 | 4.0 | 0.00 | 0.00 | 0.00 | 61 | 1014.5 |
| 20260903221044 | 72 | 0 | 1.0 | 4.0 | 0.00 | 0.00 | 0.00 | 62 | 1014.6 |
| 20260903220544 | 72 | 209 | 1.0 | 4.0 | 0.00 | 0.00 | 0.00 | 62 | 1014.6 |
| 20260903220117 | 72 | 0 | 0.0 | 4.0 | 0.00 | 0.00 | 0.00 | 64 | 1014.7 |
| 20260903215545 | 72 | 240 | 1.0 | 4.0 | 0.00 | 0.00 | 0.00 | 62 | 1014.7 |
| 20260903215044 | 72 | 133 | 0.0 | 9.0 | 0.00 | 0.00 | 0.00 | 63 | 1014.9 |
| 20260903214553 | 71 | 210 | 1.0 | 9.0 | 0.00 | 0.00 | 0.00 | 64 | 1014.9 |
| 20260903214044 | 72 | 222 | 2.0 | 7.0 | 0.00 | 0.00 | 0.00 | 63 | 1015.0 |
| 20260903213544 | 71 | 93 | 1.0 | 5.0 | 0.00 | 0.00 | 0.00 | 65 | 1014.8 |
| 20260903213100 | 70 | 281 | 1.0 | 5.0 | 0.00 | 0.00 | 0.00 | 66 | 1014.9 |
| 20260903212548 | 70 | 279 | 1.0 | 5.0 | 0.00 | 0.00 | 0.00 | 66 | 1015.0 |
| 20260903212045 | 70 | 325 | 1.0 | 3.0 | 0.00 | 0.00 | 0.00 | 67 | 1015.0 |
| 20260903211557 | 69 | 336 | 1.0 | 5.0 | 0.00 | 0.00 | 0.00 | 67 | 1015.0 |
| 20260903211044 | 69 | 277 | 1.0 | 7.0 | 0.00 | 0.00 | 0.00 | 67 | 1015.0 |
| 20260903210544 | 69 | 229 | 3.0 | 7.0 | 0.00 | 0.00 | 0.00 | 68 | 1015.0 |
| 20260903210058 | 69 | 0 | 2.0 | 5.0 | 0.00 | 0.00 | 0.00 | 68 | 1015.0 |
| 20260903205547 | 69 | 298 | 1.0 | 4.0 | 0.00 | 0.00 | 0.00 | 67 | 1015.0 |
| 20260903205044 | 69 | 248 | 1.0 | 4.0 | 0.00 | 0.00 | 0.00 | 69 | 1015.1 |
| 20260903204553 | 68 | 256 | 1.0 | 4.0 | 0.00 | 0.00 | 0.00 | 69 | 1015.1 |
| 20260903204044 | 68 | 298 | 2.0 | 5.0 | 0.00 | 0.00 | 0.00 | 69 | 1015.0 |
| 20260903203544 | 68 | 212 | 2.0 | 5.0 | 0.00 | 0.00 | 0.00 | 69 | 1015.0 |
| 20260903203108 | 68 | 303 | 2.0 | 5.0 | 0.00 | 0.00 | 0.00 | 69 | 1015.0 |
| 20260903202544 | 69 | 292 | 2.0 | 4.0 | 0.00 | 0.00 | 0.00 | 68 | 1015.0 |
| 20260903202044 | 68 | 201 | 1.0 | 4.0 | 0.00 | 0.00 | 0.00 | 69 | 1015.1 |
| 20260903201556 | 68 | 0 | 1.0 | 4.0 | 0.00 | 0.00 | 0.00 | 69 | 1015.1 |
| 20260903201045 | 68 | 311 | 2.0 | 4.0 | 0.00 | 0.00 | 0.00 | 68 | 1015.2 |
| 20260903200544 | 68 | 0 | 1.0 | 4.0 | 0.00 | 0.00 | 0.00 | 70 | 1015.2 |
| 20260903200111 | 68 | 247 | 2.0 | 5.0 | 0.00 | 0.00 | 0.00 | 69 | 1015.2 |
| 20260903195543 | 68 | 197 | 1.0 | 5.0 | 0.00 | 0.00 | 0.00 | 70 | 1015.2 |
| 20260903195044 | 67 | 305 | 1.0 | 5.0 | 0.00 | 0.00 | 0.00 | 72 | 1015.2 |
| 20260903194559 | 67 | 293 | 2.0 | 5.0 | 0.00 | 0.00 | 0.00 | 71 | 1015.4 |
| 20260903194045 | 67 | 271 | 1.0 | 4.0 | 0.00 | 0.00 | 0.00 | 72 | 1015.4 |
| 20260903193544 | 67 | 221 | 0.0 | 5.0 | 0.00 | 0.00 | 0.00 | 71 | 1015.4 |
| 20260903193054 | 67 | 290 | 1.0 | 5.0 | 0.00 | 0.00 | 0.00 | 70 | 1015.4 |
| 20260903192545 | 67 | 302 | 2.0 | 4.0 | 0.00 | 0.00 | 0.00 | 70 | 1015.6 |
| 20260903192043 | 67 | 161 | 1.0 | 4.0 | 0.00 | 0.00 | 0.00 | 70 | 1015.6 |
| 20260903191602 | 66 | 0 | 0.0 | 3.0 | 0.00 | 0.00 | 0.00 | 73 | 1015.7 |
| 20260903191044 | 66 | 0 | 0.0 | 3.0 | 0.00 | 0.00 | 0.00 | 73 | 1015.9 |
| 20260903190546 | 65 | 329 | 0.0 | 3.0 | 0.00 | 0.00 | 0.00 | 73 | 1015.9 |
| 20260903190057 | 65 | 0 | 0.0 | 3.0 | 0.00 | 0.00 | 0.00 | 74 | 1016.0 |
| 20260903185544 | 65 | 0 | 0.0 | 3.0 | 0.00 | 0.00 | 0.00 | 74 | 1016.0 |
| 20260903185044 | 65 | 0 | 0.0 | 3.0 | 0.00 | 0.00 | 0.00 | 74 | 1016.0 |
| 20260903184555 | 65 | 329 | 1.0 | 4.0 | 0.00 | 0.00 | 0.00 | 73 | 1016.1 |
| 20260903184045 | 65 | 318 | 2.0 | 4.0 | 0.00 | 0.00 | 0.00 | 73 | 1016.1 |
| 20260903183544 | 65 | 323 | 1.0 | 4.0 | 0.00 | 0.00 | 0.00 | 73 | 1016.1 |
| 20260903183057 | 65 | 0 | 1.0 | 4.0 | 0.00 | 0.00 | 0.00 | 73 | 1016.1 |
| 20260903182544 | 65 | 0 | 0.0 | 4.0 | 0.00 | 0.00 | 0.00 | 73 | 1016.1 |
| 20260903182043 | 65 | 0 | 0.0 | 2.0 | 0.00 | 0.00 | 0.00 | 73 | 1016.0 |
| 20260903181603 | 64 | 0 | 0.0 | 1.0 | 0.00 | 0.00 | 0.00 | 74 | 1016.0 |
| 20260903181046 | 64 | 0 | 0.0 | 1.0 | 0.00 | 0.00 | 0.00 | 76 | 1016.2 |
| 20260903180545 | 63 | 0 | 0.0 | 1.0 | 0.00 | 0.00 | 0.00 | 77 | 1016.1 |
| 20260903180058 | 62 | 0 | 0.0 | 1.0 | 0.00 | 0.00 | 0.00 | 78 | 1016.0 |
| 20260903175544 | 61 | 232 | 0.0 | 1.0 | 0.00 | 0.00 | 0.00 | 80 | 1016.1 |
| 20260903175043 | 61 | 0 | 0.0 | 1.0 | 0.00 | 0.00 | 0.00 | 80 | 1016.2 |
| 20260903174555 | 61 | 0 | 0.0 | 1.0 | 0.00 | 0.00 | 0.00 | 81 | 1016.2 |
| 20260903174044 | 61 | 0 | 0.0 | 0.0 | 0.00 | 0.00 | 0.00 | 82 | 1016.1 |
| 20260903173547 | 60 | 0 | 0.0 | 0.0 | 0.00 | 0.00 | 0.00 | 81 | 1016.1 |
| 20260903173058 | 60 | 0 | 0.0 | 0.0 | 0.00 | 0.00 | 0.00 | 83 | 1016.1 |
| 20260903172544 | 59 | 0 | 0.0 | 0.0 | 0.00 | 0.00 | 0.00 | 84 | 1016.1 |
| 20260903172044 | 59 | 0 | 0.0 | 1.0 | 0.00 | 0.00 | 0.00 | 85 | 1016.0 |
| 20260903171601 | 59 | 0 | 0.0 | 1.0 | 0.00 | 0.00 | 0.00 | 86 | 1016.1 |
| 20260903171045 | 58 | 0 | 0.0 | 0.0 | 0.00 | 0.00 | 0.00 | 86 | 1016.1 |
| 20260903170544 | 58 | 0 | 0.0 | 0.0 | 0.00 | 0.00 | 0.00 | 86 | 1016.1 |
| 20260903165544 | 57 | 0 | 0.0 | 0.0 | 0.00 | 0.00 | 0.00 | 88 | 1016.1 |
| 20260903165048 | 57 | 0 | 0.0 | 0.0 | 0.00 | 0.00 | 0.00 | 89 | 1016.2 |
| 20260903164557 | 57 | 0 | 0.0 | 2.0 | 0.00 | 0.00 | 0.00 | 90 | 1016.2 |
| 20260903164044 | 56 | 0 | 0.0 | 2.0 | 0.00 | 0.00 | 0.00 | 90 | 1016.1 |
| 20260903163544 | 56 | 28 | 0.0 | 3.0 | 0.00 | 0.00 | 0.00 | 91 | 1016.2 |
| 20260903163055 | 56 | 28 | 1.0 | 3.0 | 0.00 | 0.00 | 0.00 | 92 | 1016.3 |
| 20260903162544 | 55 | 0 | 1.0 | 3.0 | 0.00 | 0.00 | 0.00 | 93 | 1016.1 |
| 20260903162044 | 55 | 0 | 1.0 | 3.0 | 0.00 | 0.00 | 0.00 | 94 | 1016.1 |
| 20260903161603 | 55 | 0 | 0.0 | 2.0 | 0.00 | 0.00 | 0.00 | 94 | 1016.2 |
| 20260903161044 | 54 | 37 | 0.0 | 2.0 | 0.00 | 0.00 | 0.00 | 95 | 1016.3 |
| 20260903160544 | 54 | 0 | 0.0 | 2.0 | 0.00 | 0.00 | 0.00 | 95 | 1016.3 |
| 20260903160057 | 54 | 0 | 0.0 | 3.0 | 0.00 | 0.00 | 0.00 | 95 | 1016.2 |
| 20260903155546 | 54 | 0 | 0.0 | 3.0 | 0.00 | 0.00 | 0.00 | 95 | 1016.2 |
| 20260903155043 | 54 | 0 | 1.0 | 3.0 | 0.00 | 0.00 | 0.00 | 95 | 1016.3 |
| 20260903154554 | 53 | 318 | 1.0 | 3.0 | 0.00 | 0.00 | 0.00 | 95 | 1016.4 |
| 20260903154044 | 53 | 312 | 1.0 | 3.0 | 0.00 | 0.00 | 0.00 | 95 | 1016.2 |
| 20260903153543 | 53 | 312 | 2.0 | 5.0 | 0.00 | 0.00 | 0.00 | 95 | 1016.3 |
| 20260903153104 | 53 | 312 | 2.0 | 5.0 | 0.00 | 0.00 | 0.00 | 95 | 1016.3 |
| 20260903152544 | 53 | 311 | 3.0 | 5.0 | 0.00 | 0.00 | 0.00 | 95 | 1016.4 |
| 20260903152044 | 53 | 315 | 2.0 | 4.0 | 0.00 | 0.00 | 0.00 | 95 | 1016.3 |
| 20260903151551 | 53 | 315 | 2.0 | 4.0 | 0.00 | 0.00 | 0.00 | 95 | 1016.3 |
| 20260903151044 | 53 | 305 | 2.0 | 5.0 | 0.00 | 0.00 | 0.00 | 94 | 1016.3 |
| 20260903150545 | 53 | 305 | 2.0 | 5.0 | 0.00 | 0.00 | 0.00 | 94 | 1016.3 |
| 20260903150111 | 52 | 300 | 2.0 | 5.0 | 0.00 | 0.00 | 0.00 | 94 | 1016.3 |
| 20260903145543 | 53 | 311 | 3.0 | 5.0 | 0.00 | 0.00 | 0.00 | 94 | 1016.2 |
| 20260903145043 | 53 | 327 | 3.0 | 5.0 | 0.00 | 0.00 | 0.00 | 94 | 1016.3 |
| 20260903144610 | 52 | 319 | 3.0 | 5.0 | 0.00 | 0.00 | 0.00 | 94 | 1016.3 |
| 20260903144044 | 52 | 313 | 3.0 | 5.0 | 0.00 | 0.00 | 0.00 | 94 | 1016.4 |
| 20260903143543 | 52 | 306 | 3.0 | 5.0 | 0.00 | 0.00 | 0.00 | 94 | 1016.3 |
| 20260903143054 | 52 | 314 | 3.0 | 5.0 | 0.00 | 0.00 | 0.00 | 94 | 1016.2 |
| 20260903142543 | 52 | 304 | 2.0 | 5.0 | 0.00 | 0.00 | 0.00 | 94 | 1016.2 |
| 20260903142043 | 52 | 319 | 3.0 | 8.0 | 0.00 | 0.00 | 0.00 | 94 | 1016.1 |
| 20260903141553 | 51 | 311 | 4.0 | 8.0 | 0.00 | 0.00 | 0.00 | 94 | 1016.1 |
| 20260903141044 | 51 | 294 | 3.0 | 5.0 | 0.00 | 0.00 | 0.00 | 93 | 1016.1 |
| 20260903140544 | 51 | 312 | 2.0 | 3.0 | 0.00 | 0.00 | 0.00 | 93 | 1016.0 |
| 20260903140104 | 51 | 312 | 1.0 | 2.0 | 0.00 | 0.00 | 0.00 | 93 | 1016.0 |
| 20260903135544 | 51 | 0 | 0.0 | 0.0 | 0.00 | 0.00 | 0.00 | 93 | 1016.0 |
| 20260903135045 | 51 | 0 | 0.0 | 0.0 | 0.00 | 0.00 | 0.00 | 93 | 1015.8 |
| 20260903134614 | 51 | 0 | 0.0 | 1.0 | 0.00 | 0.00 | 0.00 | 93 | 1015.8 |
| 20260903134047 | 51 | 0 | 0.0 | 2.0 | 0.00 | 0.00 | 0.00 | 93 | 1015.8 |
| 20260903133547 | 51 | 0 | 0.0 | 3.0 | 0.00 | 0.00 | 0.00 | 93 | 1015.9 |
| 20260903133106 | 51 | 312 | 0.0 | 3.0 | 0.00 | 0.00 | 0.00 | 93 | 1015.8 |
| 20260903132543 | 51 | 312 | 1.0 | 4.0 | 0.00 | 0.00 | 0.00 | 93 | 1015.9 |
| 20260903132045 | 52 | 312 | 2.0 | 5.0 | 0.00 | 0.00 | 0.00 | 93 | 1015.9 |
| 20260903131605 | 52 | 312 | 3.0 | 5.0 | 0.00 | 0.00 | 0.00 | 92 | 1015.9 |
| 20260903131045 | 52 | 313 | 3.0 | 5.0 | 0.00 | 0.00 | 0.00 | 92 | 1015.8 |
| 20260903130544 | 52 | 316 | 3.0 | 5.0 | 0.00 | 0.00 | 0.00 | 92 | 1015.9 |
| 20260903130105 | 52 | 309 | 3.0 | 5.0 | 0.00 | 0.00 | 0.00 | 92 | 1015.8 |
| 20260903125546 | 52 | 317 | 1.0 | 4.0 | 0.00 | 0.00 | 0.00 | 91 | 1015.8 |
| 20260903125044 | 52 | 317 | 2.0 | 4.0 | 0.00 | 0.00 | 0.00 | 91 | 1015.8 |
| 20260903124600 | 53 | 317 | 2.0 | 5.0 | 0.00 | 0.00 | 0.00 | 91 | 1015.8 |
| 20260903124043 | 53 | 318 | 2.0 | 5.0 | 0.00 | 0.00 | 0.00 | 90 | 1015.9 |
| 20260903123546 | 53 | 318 | 1.0 | 4.0 | 0.00 | 0.00 | 0.00 | 90 | 1016.0 |
| 20260903123057 | 53 | 317 | 2.0 | 4.0 | 0.00 | 0.00 | 0.00 | 90 | 1016.0 |
| 20260903122543 | 53 | 317 | 2.0 | 4.0 | 0.00 | 0.00 | 0.00 | 89 | 1016.1 |
| 20260903122043 | 53 | 321 | 2.0 | 4.0 | 0.00 | 0.00 | 0.00 | 89 | 1016.1 |
| 20260903121601 | 53 | 321 | 2.0 | 4.0 | 0.00 | 0.00 | 0.00 | 88 | 1016.1 |
| 20260903121044 | 53 | 313 | 2.0 | 5.0 | 0.00 | 0.00 | 0.00 | 87 | 1016.0 |
| 20260903120544 | 54 | 311 | 2.0 | 5.0 | 0.00 | 0.00 | 0.00 | 86 | 1016.1 |
| 20260903120109 | 54 | 319 | 2.0 | 4.0 | 0.00 | 0.00 | 0.00 | 85 | 1016.0 |
| 20260903115543 | 54 | 319 | 0.0 | 4.0 | 0.00 | 0.00 | 0.00 | 85 | 1016.1 |
| 20260903115043 | 54 | 319 | 1.0 | 4.0 | 0.00 | 0.00 | 0.00 | 85 | 1016.2 |
| 20260903114555 | 54 | 319 | 1.0 | 4.0 | 0.00 | 0.00 | 0.00 | 85 | 1016.1 |
| 20260903114043 | 54 | 317 | 2.0 | 4.0 | 0.00 | 0.00 | 0.00 | 85 | 1016.1 |
| 20260903113544 | 54 | 321 | 3.0 | 6.0 | 0.00 | 0.00 | 0.00 | 85 | 1016.2 |
| 20260903113053 | 54 | 316 | 2.0 | 7.0 | 0.00 | 0.00 | 0.00 | 84 | 1016.3 |
| 20260903112543 | 54 | 316 | 3.0 | 7.0 | 0.00 | 0.00 | 0.00 | 84 | 1016.3 |
| 20260903112043 | 54 | 312 | 3.0 | 5.0 | 0.00 | 0.00 | 0.00 | 83 | 1016.4 |
| 20260903111551 | 55 | 309 | 3.0 | 7.0 | 0.00 | 0.00 | 0.00 | 81 | 1016.4 |
| 20260903111044 | 55 | 315 | 3.0 | 7.0 | 0.00 | 0.00 | 0.00 | 80 | 1016.5 |
| 20260903110544 | 55 | 311 | 3.0 | 7.0 | 0.00 | 0.00 | 0.00 | 79 | 1016.6 |
| 20260903110104 | 55 | 302 | 4.0 | 6.0 | 0.00 | 0.00 | 0.00 | 78 | 1016.5 |
| 20260903105547 | 55 | 312 | 3.0 | 7.0 | 0.00 | 0.00 | 0.00 | 77 | 1016.6 |
| 20260903105044 | 55 | 312 | 3.0 | 8.0 | 0.00 | 0.00 | 0.00 | 77 | 1016.6 |
| 20260903104622 | 55 | 311 | 4.0 | 8.0 | 0.00 | 0.00 | 0.00 | 75 | 1016.6 |
| 20260903104043 | 55 | 318 | 4.0 | 8.0 | 0.00 | 0.00 | 0.00 | 75 | 1016.6 |
| 20260903103546 | 55 | 306 | 4.0 | 8.0 | 0.00 | 0.00 | 0.00 | 75 | 1016.5 |
| 20260903103104 | 55 | 306 | 4.0 | 8.0 | 0.00 | 0.00 | 0.00 | 75 | 1016.6 |
| 20260903102543 | 55 | 311 | 4.0 | 7.0 | 0.00 | 0.00 | 0.00 | 75 | 1016.6 |
| 20260903102042 | 55 | 309 | 3.0 | 7.0 | 0.00 | 0.00 | 0.00 | 74 | 1016.5 |
| 20260903101604 | 55 | 311 | 3.0 | 7.0 | 0.00 | 0.00 | 0.00 | 74 | 1016.6 |
| 20260903101047 | 55 | 313 | 4.0 | 7.0 | 0.00 | 0.00 | 0.00 | 74 | 1016.6 |
| 20260903100544 | 55 | 308 | 3.0 | 7.0 | 0.00 | 0.00 | 0.00 | 74 | 1016.6 |
| 20260903100217 | 55 | 311 | 4.0 | 7.0 | 0.00 | 0.00 | 0.00 | 74 | 1016.6 |
| 20260903095542 | 55 | 311 | 3.0 | 7.0 | 0.00 | 0.00 | 0.00 | 75 | 1016.6 |
| 20260903095043 | 55 | 306 | 3.0 | 7.0 | 0.00 | 0.00 | 0.00 | 75 | 1016.7 |
| 20260903094605 | 55 | 300 | 4.0 | 5.0 | 0.00 | 0.00 | 0.00 | 76 | 1016.7 |
| 20260903094043 | 55 | 311 | 4.0 | 5.0 | 0.00 | 0.00 | 0.00 | 76 | 1016.8 |
| 20260903093543 | 55 | 311 | 3.0 | 6.0 | 0.00 | 0.00 | 0.00 | 77 | 1016.8 |
| 20260903093105 | 55 | 309 | 4.0 | 7.0 | 0.00 | 0.00 | 0.00 | 76 | 1016.9 |
| 20260903092545 | 55 | 323 | 3.0 | 7.0 | 0.00 | 0.00 | 0.00 | 76 | 1016.8 |